sensor_id;sensor_type;location;lat;lon;timestamp;P1;durP1;ratioP1;P2;durP2;ratioP2
10082;SDS011;5080;48.528;8.078;2023-07-28T00:01:41;10.13;;;9.73;;
10082;SDS011;5080;48.528;8.078;2023-07-28T00:04:08;11.60;;;11.20;;
10082;SDS011;5080;48.528;8.078;2023-07-28T00:06:35;10.30;;;9.97;;
10082;SDS011;5080;48.528;8.078;2023-07-28T00:09:02;10.27;;;9.93;;
10082;SDS011;5080;48.528;8.078;2023-07-28T00:11:29;11.60;;;11.20;;
10082;SDS011;5080;48.528;8.078;2023-07-28T00:13:56;10.50;;;10.20;;
10082;SDS011;5080;48.528;8.078;2023-07-28T00:16:24;14.40;;;13.90;;
10082;SDS011;5080;48.528;8.078;2023-07-28T00:18:51;11.30;;;10.90;;
10082;SDS011;5080;48.528;8.078;2023-07-28T00:21:18;10.37;;;9.97;;
10082;SDS011;5080;48.528;8.078;2023-07-28T00:23:45;10.03;;;9.73;;
10082;SDS011;5080;48.528;8.078;2023-07-28T00:26:12;10.90;;;10.48;;
10082;SDS011;5080;48.528;8.078;2023-07-28T00:28:38;10.35;;;10.05;;
10082;SDS011;5080;48.528;8.078;2023-07-28T00:31:05;11.00;;;10.60;;
10082;SDS011;5080;48.528;8.078;2023-07-28T00:33:33;10.93;;;10.40;;
10082;SDS011;5080;48.528;8.078;2023-07-28T00:36:00;11.30;;;10.90;;
10082;SDS011;5080;48.528;8.078;2023-07-28T00:38:27;10.40;;;10.10;;
10082;SDS011;5080;48.528;8.078;2023-07-28T00:40:54;11.73;;;11.33;;
10082;SDS011;5080;48.528;8.078;2023-07-28T00:43:21;10.80;;;10.40;;
10082;SDS011;5080;48.528;8.078;2023-07-28T00:45:47;11.00;;;10.60;;
10082;SDS011;5080;48.528;8.078;2023-07-28T00:48:14;11.07;;;10.68;;
10082;SDS011;5080;48.528;8.078;2023-07-28T00:50:44;10.93;;;10.52;;
10082;SDS011;5080;48.528;8.078;2023-07-28T00:53:12;13.10;;;12.60;;
10082;SDS011;5080;48.528;8.078;2023-07-28T00:55:39;11.00;;;10.60;;
10082;SDS011;5080;48.528;8.078;2023-07-28T00:58:07;13.00;;;12.60;;
10082;SDS011;5080;48.528;8.078;2023-07-28T01:00:34;11.43;;;11.02;;
10082;SDS011;5080;48.528;8.078;2023-07-28T01:03:01;11.40;;;11.00;;
10082;SDS011;5080;48.528;8.078;2023-07-28T01:05:32;11.75;;;11.35;;
10082;SDS011;5080;48.528;8.078;2023-07-28T01:08:08;11.85;;;11.35;;
10082;SDS011;5080;48.528;8.078;2023-07-28T01:10:40;11.38;;;10.98;;
10082;SDS011;5080;48.528;8.078;2023-07-28T01:13:08;10.35;;;9.93;;
10082;SDS011;5080;48.528;8.078;2023-07-28T01:15:35;11.77;;;11.37;;
10082;SDS011;5080;48.528;8.078;2023-07-28T01:18:02;11.93;;;11.53;;
10082;SDS011;5080;48.528;8.078;2023-07-28T01:20:29;11.37;;;10.97;;
10082;SDS011;5080;48.528;8.078;2023-07-28T01:23:05;11.05;;;10.65;;
10082;SDS011;5080;48.528;8.078;2023-07-28T01:25:43;12.00;;;11.60;;
10082;SDS011;5080;48.528;8.078;2023-07-28T01:28:16;11.63;;;11.23;;
10082;SDS011;5080;48.528;8.078;2023-07-28T01:30:44;11.52;;;11.13;;
10082;SDS011;5080;48.528;8.078;2023-07-28T01:33:11;11.90;;;11.50;;
10082;SDS011;5080;48.528;8.078;2023-07-28T01:35:38;11.82;;;11.43;;
10082;SDS011;5080;48.528;8.078;2023-07-28T01:38:05;11.95;;;11.55;;
10082;SDS011;5080;48.528;8.078;2023-07-28T01:40:32;12.23;;;11.82;;
10082;SDS011;5080;48.528;8.078;2023-07-28T01:42:59;13.95;;;13.35;;
10082;SDS011;5080;48.528;8.078;2023-07-28T01:45:27;11.50;;;11.10;;
10082;SDS011;5080;48.528;8.078;2023-07-28T01:47:54;11.50;;;11.10;;
10082;SDS011;5080;48.528;8.078;2023-07-28T01:50:20;11.15;;;10.75;;
10082;SDS011;5080;48.528;8.078;2023-07-28T01:52:47;11.82;;;11.43;;
10082;SDS011;5080;48.528;8.078;2023-07-28T01:55:14;15.13;;;14.60;;
10082;SDS011;5080;48.528;8.078;2023-07-28T01:57:49;11.95;;;11.55;;
10082;SDS011;5080;48.528;8.078;2023-07-28T02:00:17;11.75;;;11.35;;
10082;SDS011;5080;48.528;8.078;2023-07-28T02:02:45;10.73;;;10.38;;
10082;SDS011;5080;48.528;8.078;2023-07-28T02:05:12;12.02;;;11.63;;
10082;SDS011;5080;48.528;8.078;2023-07-28T02:07:39;12.18;;;11.77;;
10082;SDS011;5080;48.528;8.078;2023-07-28T02:10:06;11.73;;;11.32;;
10082;SDS011;5080;48.528;8.078;2023-07-28T02:12:33;11.77;;;11.37;;
10082;SDS011;5080;48.528;8.078;2023-07-28T02:15:00;12.55;;;12.15;;
10082;SDS011;5080;48.528;8.078;2023-07-28T02:17:27;11.33;;;10.93;;
10082;SDS011;5080;48.528;8.078;2023-07-28T02:19:56;11.60;;;11.20;;
10082;SDS011;5080;48.528;8.078;2023-07-28T02:22:22;13.13;;;12.63;;
10082;SDS011;5080;48.528;8.078;2023-07-28T02:24:49;12.77;;;12.27;;
10082;SDS011;5080;48.528;8.078;2023-07-28T02:27:16;12.20;;;11.70;;
10082;SDS011;5080;48.528;8.078;2023-07-28T02:29:43;12.23;;;11.82;;
10082;SDS011;5080;48.528;8.078;2023-07-28T02:32:10;11.50;;;11.10;;
10082;SDS011;5080;48.528;8.078;2023-07-28T02:34:37;12.30;;;11.90;;
10082;SDS011;5080;48.528;8.078;2023-07-28T02:37:05;11.43;;;11.03;;
10082;SDS011;5080;48.528;8.078;2023-07-28T02:39:32;12.10;;;11.70;;
10082;SDS011;5080;48.528;8.078;2023-07-28T02:41:59;11.57;;;11.17;;
10082;SDS011;5080;48.528;8.078;2023-07-28T02:44:26;12.50;;;12.00;;
10082;SDS011;5080;48.528;8.078;2023-07-28T02:46:52;12.27;;;11.87;;
10082;SDS011;5080;48.528;8.078;2023-07-28T02:49:19;11.70;;;11.30;;
10082;SDS011;5080;48.528;8.078;2023-07-28T02:51:46;12.77;;;12.37;;
10082;SDS011;5080;48.528;8.078;2023-07-28T02:54:14;11.73;;;11.33;;
10082;SDS011;5080;48.528;8.078;2023-07-28T02:56:41;12.33;;;11.93;;
10082;SDS011;5080;48.528;8.078;2023-07-28T02:59:08;12.00;;;11.60;;
10082;SDS011;5080;48.528;8.078;2023-07-28T03:01:34;12.63;;;12.23;;
10082;SDS011;5080;48.528;8.078;2023-07-28T03:04:01;12.87;;;12.47;;
10082;SDS011;5080;48.528;8.078;2023-07-28T03:06:29;11.97;;;11.47;;
10082;SDS011;5080;48.528;8.078;2023-07-28T03:08:57;11.70;;;11.30;;
10082;SDS011;5080;48.528;8.078;2023-07-28T03:11:26;12.90;;;12.50;;
10082;SDS011;5080;48.528;8.078;2023-07-28T03:13:52;13.07;;;12.67;;
10082;SDS011;5080;48.528;8.078;2023-07-28T03:16:19;13.05;;;12.55;;
10082;SDS011;5080;48.528;8.078;2023-07-28T03:18:46;13.10;;;12.70;;
10082;SDS011;5080;48.528;8.078;2023-07-28T03:21:13;55.30;;;52.57;;
10082;SDS011;5080;48.528;8.078;2023-07-28T03:23:40;11.98;;;11.57;;
10082;SDS011;5080;48.528;8.078;2023-07-28T03:26:07;12.27;;;11.87;;
10082;SDS011;5080;48.528;8.078;2023-07-28T03:28:35;12.70;;;12.10;;
10082;SDS011;5080;48.528;8.078;2023-07-28T03:31:02;12.48;;;12.05;;
10082;SDS011;5080;48.528;8.078;2023-07-28T03:33:29;12.95;;;12.55;;
10082;SDS011;5080;48.528;8.078;2023-07-28T03:35:56;14.55;;;14.05;;
10082;SDS011;5080;48.528;8.078;2023-07-28T03:38:22;13.15;;;12.75;;
10082;SDS011;5080;48.528;8.078;2023-07-28T03:40:50;13.60;;;13.10;;
10082;SDS011;5080;48.528;8.078;2023-07-28T03:43:17;13.45;;;12.95;;
10082;SDS011;5080;48.528;8.078;2023-07-28T03:45:46;14.38;;;13.88;;
10082;SDS011;5080;48.528;8.078;2023-07-28T03:48:13;16.50;;;15.93;;
10082;SDS011;5080;48.528;8.078;2023-07-28T03:50:39;16.02;;;15.52;;
10082;SDS011;5080;48.528;8.078;2023-07-28T03:53:06;17.73;;;17.13;;
10082;SDS011;5080;48.528;8.078;2023-07-28T03:55:33;16.00;;;15.50;;
10082;SDS011;5080;48.528;8.078;2023-07-28T03:58:01;17.65;;;17.05;;
10082;SDS011;5080;48.528;8.078;2023-07-28T04:00:28;17.63;;;17.03;;
10082;SDS011;5080;48.528;8.078;2023-07-28T04:02:56;17.00;;;16.40;;
10082;SDS011;5080;48.528;8.078;2023-07-28T04:05:23;17.50;;;16.90;;
10082;SDS011;5080;48.528;8.078;2023-07-28T04:07:50;16.88;;;16.27;;
10082;SDS011;5080;48.528;8.078;2023-07-28T04:10:17;17.10;;;16.50;;
10082;SDS011;5080;48.528;8.078;2023-07-28T04:12:44;17.38;;;16.77;;
10082;SDS011;5080;48.528;8.078;2023-07-28T04:15:10;17.38;;;16.77;;
10082;SDS011;5080;48.528;8.078;2023-07-28T04:17:37;19.42;;;18.73;;
10082;SDS011;5080;48.528;8.078;2023-07-28T04:20:06;17.25;;;16.65;;
10082;SDS011;5080;48.528;8.078;2023-07-28T04:22:33;17.88;;;17.27;;
10082;SDS011;5080;48.528;8.078;2023-07-28T04:25:00;17.95;;;17.35;;
10082;SDS011;5080;48.528;8.078;2023-07-28T04:27:27;17.58;;;16.98;;
10082;SDS011;5080;48.528;8.078;2023-07-28T04:29:54;17.35;;;16.75;;
10082;SDS011;5080;48.528;8.078;2023-07-28T04:32:21;17.63;;;17.03;;
10082;SDS011;5080;48.528;8.078;2023-07-28T04:34:48;16.92;;;16.33;;
10082;SDS011;5080;48.528;8.078;2023-07-28T04:37:16;16.97;;;16.27;;
10082;SDS011;5080;48.528;8.078;2023-07-28T04:39:43;17.23;;;16.63;;
10082;SDS011;5080;48.528;8.078;2023-07-28T04:42:10;17.43;;;16.83;;
10082;SDS011;5080;48.528;8.078;2023-07-28T04:44:37;17.70;;;17.10;;
10082;SDS011;5080;48.528;8.078;2023-07-28T04:47:04;15.48;;;14.98;;
10082;SDS011;5080;48.528;8.078;2023-07-28T04:49:32;15.93;;;15.32;;
10082;SDS011;5080;48.528;8.078;2023-07-28T04:51:59;15.50;;;14.98;;
10082;SDS011;5080;48.528;8.078;2023-07-28T04:54:27;15.50;;;15.00;;
10082;SDS011;5080;48.528;8.078;2023-07-28T04:56:54;12.43;;;12.03;;
10082;SDS011;5080;48.528;8.078;2023-07-28T04:59:20;13.32;;;12.82;;
10082;SDS011;5080;48.528;8.078;2023-07-28T05:01:47;14.48;;;13.98;;
10082;SDS011;5080;48.528;8.078;2023-07-28T05:04:14;15.90;;;15.35;;
10082;SDS011;5080;48.528;8.078;2023-07-28T05:06:41;14.50;;;14.00;;
10082;SDS011;5080;48.528;8.078;2023-07-28T05:09:07;15.88;;;15.38;;
10082;SDS011;5080;48.528;8.078;2023-07-28T05:11:36;11.00;;;10.60;;
10082;SDS011;5080;48.528;8.078;2023-07-28T05:14:03;13.35;;;12.88;;
10082;SDS011;5080;48.528;8.078;2023-07-28T05:16:31;18.75;;;18.05;;
10082;SDS011;5080;48.528;8.078;2023-07-28T05:18:58;14.25;;;13.75;;
10082;SDS011;5080;48.528;8.078;2023-07-28T05:21:25;13.65;;;13.20;;
10082;SDS011;5080;48.528;8.078;2023-07-28T05:23:51;16.90;;;16.30;;
10082;SDS011;5080;48.528;8.078;2023-07-28T05:26:18;16.27;;;15.75;;
10082;SDS011;5080;48.528;8.078;2023-07-28T05:28:46;17.40;;;16.80;;
10082;SDS011;5080;48.528;8.078;2023-07-28T05:31:13;12.30;;;11.90;;
10082;SDS011;5080;48.528;8.078;2023-07-28T05:33:40;15.17;;;14.67;;
10082;SDS011;5080;48.528;8.078;2023-07-28T05:36:07;17.85;;;17.17;;
10082;SDS011;5080;48.528;8.078;2023-07-28T05:38:34;17.73;;;17.13;;
10082;SDS011;5080;48.528;8.078;2023-07-28T05:41:01;11.32;;;10.93;;
10082;SDS011;5080;48.528;8.078;2023-07-28T05:43:29;14.50;;;14.00;;
10082;SDS011;5080;48.528;8.078;2023-07-28T05:45:57;10.85;;;10.45;;
10082;SDS011;5080;48.528;8.078;2023-07-28T05:48:25;11.05;;;10.65;;
10082;SDS011;5080;48.528;8.078;2023-07-28T05:50:52;11.50;;;11.10;;
10082;SDS011;5080;48.528;8.078;2023-07-28T05:53:19;11.83;;;11.43;;
10082;SDS011;5080;48.528;8.078;2023-07-28T05:55:47;11.40;;;11.00;;
10082;SDS011;5080;48.528;8.078;2023-07-28T05:58:13;10.90;;;10.50;;
10082;SDS011;5080;48.528;8.078;2023-07-28T06:00:40;10.80;;;10.40;;
10082;SDS011;5080;48.528;8.078;2023-07-28T06:03:09;10.77;;;10.43;;
10082;SDS011;5080;48.528;8.078;2023-07-28T06:05:37;10.68;;;10.27;;
10082;SDS011;5080;48.528;8.078;2023-07-28T06:08:05;11.15;;;10.75;;
10082;SDS011;5080;48.528;8.078;2023-07-28T06:10:32;11.40;;;11.00;;
10082;SDS011;5080;48.528;8.078;2023-07-28T06:12:59;10.97;;;10.57;;
10082;SDS011;5080;48.528;8.078;2023-07-28T06:15:26;10.23;;;9.83;;
10082;SDS011;5080;48.528;8.078;2023-07-28T06:17:53;10.23;;;9.93;;
10082;SDS011;5080;48.528;8.078;2023-07-28T06:20:21;9.82;;;9.52;;
10082;SDS011;5080;48.528;8.078;2023-07-28T06:22:48;11.38;;;10.98;;
10082;SDS011;5080;48.528;8.078;2023-07-28T06:25:15;10.82;;;10.43;;
10082;SDS011;5080;48.528;8.078;2023-07-28T06:27:42;11.07;;;10.68;;
10082;SDS011;5080;48.528;8.078;2023-07-28T06:30:09;11.23;;;10.82;;
10082;SDS011;5080;48.528;8.078;2023-07-28T06:32:37;13.35;;;12.85;;
10082;SDS011;5080;48.528;8.078;2023-07-28T06:35:04;13.05;;;12.63;;
10082;SDS011;5080;48.528;8.078;2023-07-28T06:37:34;11.57;;;11.18;;
10082;SDS011;5080;48.528;8.078;2023-07-28T06:40:02;10.48;;;10.07;;
10082;SDS011;5080;48.528;8.078;2023-07-28T06:42:30;11.85;;;11.45;;
10082;SDS011;5080;48.528;8.078;2023-07-28T06:44:58;14.65;;;14.15;;
10082;SDS011;5080;48.528;8.078;2023-07-28T06:47:25;12.03;;;11.63;;
10082;SDS011;5080;48.528;8.078;2023-07-28T06:49:52;11.82;;;11.43;;
10082;SDS011;5080;48.528;8.078;2023-07-28T06:52:19;14.10;;;13.60;;
10082;SDS011;5080;48.528;8.078;2023-07-28T06:54:47;15.32;;;14.82;;
10082;SDS011;5080;48.528;8.078;2023-07-28T06:57:15;25.52;;;24.63;;
10082;SDS011;5080;48.528;8.078;2023-07-28T06:59:41;15.57;;;14.97;;
10082;SDS011;5080;48.528;8.078;2023-07-28T07:02:08;19.17;;;18.50;;
10082;SDS011;5080;48.528;8.078;2023-07-28T07:04:35;30.87;;;29.77;;
10082;SDS011;5080;48.528;8.078;2023-07-28T07:07:02;16.60;;;16.00;;
10082;SDS011;5080;48.528;8.078;2023-07-28T07:09:29;20.52;;;19.77;;
10082;SDS011;5080;48.528;8.078;2023-07-28T07:11:57;18.87;;;18.20;;
10082;SDS011;5080;48.528;8.078;2023-07-28T07:14:24;27.13;;;26.13;;
10082;SDS011;5080;48.528;8.078;2023-07-28T07:16:51;17.33;;;16.73;;
10082;SDS011;5080;48.528;8.078;2023-07-28T07:19:18;16.58;;;15.98;;
10082;SDS011;5080;48.528;8.078;2023-07-28T07:21:44;27.40;;;26.47;;
10082;SDS011;5080;48.528;8.078;2023-07-28T07:24:12;16.50;;;15.90;;
10082;SDS011;5080;48.528;8.078;2023-07-28T07:26:39;38.78;;;37.38;;
10082;SDS011;5080;48.528;8.078;2023-07-28T07:29:08;17.85;;;17.25;;
10082;SDS011;5080;48.528;8.078;2023-07-28T07:31:35;27.05;;;26.15;;
10082;SDS011;5080;48.528;8.078;2023-07-28T07:34:02;20.77;;;20.05;;
10082;SDS011;5080;48.528;8.078;2023-07-28T07:36:29;25.95;;;25.05;;
10082;SDS011;5080;48.528;8.078;2023-07-28T07:38:56;25.38;;;24.50;;
10082;SDS011;5080;48.528;8.078;2023-07-28T07:41:24;23.50;;;22.67;;
10082;SDS011;5080;48.528;8.078;2023-07-28T07:43:52;25.40;;;24.52;;
10082;SDS011;5080;48.528;8.078;2023-07-28T07:46:21;28.60;;;27.60;;
10082;SDS011;5080;48.528;8.078;2023-07-28T07:48:48;29.05;;;28.05;;
10082;SDS011;5080;48.528;8.078;2023-07-28T07:51:15;25.35;;;24.48;;
10082;SDS011;5080;48.528;8.078;2023-07-28T07:53:42;41.40;;;39.93;;
10082;SDS011;5080;48.528;8.078;2023-07-28T07:56:09;38.77;;;37.40;;
10082;SDS011;5080;48.528;8.078;2023-07-28T07:58:37;25.10;;;24.23;;
10082;SDS011;5080;48.528;8.078;2023-07-28T08:01:04;36.42;;;35.15;;
10082;SDS011;5080;48.528;8.078;2023-07-28T08:03:32;43.27;;;41.77;;
10082;SDS011;5080;48.528;8.078;2023-07-28T08:06:01;22.95;;;22.15;;
10082;SDS011;5080;48.528;8.078;2023-07-28T08:08:28;30.87;;;29.77;;
10082;SDS011;5080;48.528;8.078;2023-07-28T08:10:55;28.52;;;27.52;;
10082;SDS011;5080;48.528;8.078;2023-07-28T08:13:22;43.20;;;41.67;;
10082;SDS011;5080;48.528;8.078;2023-07-28T08:15:48;27.43;;;26.47;;
10082;SDS011;5080;48.528;8.078;2023-07-28T08:18:15;46.22;;;44.63;;
10082;SDS011;5080;48.528;8.078;2023-07-28T08:20:43;47.67;;;45.97;;
10082;SDS011;5080;48.528;8.078;2023-07-28T08:23:10;39.90;;;38.50;;
10082;SDS011;5080;48.528;8.078;2023-07-28T08:25:37;44.78;;;43.15;;
10082;SDS011;5080;48.528;8.078;2023-07-28T08:28:04;42.47;;;40.97;;
10082;SDS011;5080;48.528;8.078;2023-07-28T08:30:31;46.85;;;45.22;;
10082;SDS011;5080;48.528;8.078;2023-07-28T08:32:58;47.47;;;45.80;;
10082;SDS011;5080;48.528;8.078;2023-07-28T08:35:25;50.77;;;48.93;;
10082;SDS011;5080;48.528;8.078;2023-07-28T08:37:53;44.22;;;42.70;;
10082;SDS011;5080;48.528;8.078;2023-07-28T08:40:20;35.43;;;34.20;;
10082;SDS011;5080;48.528;8.078;2023-07-28T08:42:49;30.45;;;29.38;;
10082;SDS011;5080;48.528;8.078;2023-07-28T08:45:17;25.02;;;24.15;;
10082;SDS011;5080;48.528;8.078;2023-07-28T08:47:45;42.70;;;41.20;;
10082;SDS011;5080;48.528;8.078;2023-07-28T08:50:12;36.35;;;35.08;;
10082;SDS011;5080;48.528;8.078;2023-07-28T08:52:39;25.25;;;24.35;;
10082;SDS011;5080;48.528;8.078;2023-07-28T08:55:07;27.03;;;26.03;;
10082;SDS011;5080;48.528;8.078;2023-07-28T08:57:36;29.30;;;28.30;;
10082;SDS011;5080;48.528;8.078;2023-07-28T09:00:12;50.65;;;48.85;;
10082;SDS011;5080;48.528;8.078;2023-07-28T09:02:39;40.92;;;39.47;;
10082;SDS011;5080;48.528;8.078;2023-07-28T09:05:07;52.17;;;50.35;;
10082;SDS011;5080;48.528;8.078;2023-07-28T09:07:44;47.63;;;45.92;;
10082;SDS011;5080;48.528;8.078;2023-07-28T09:10:13;31.25;;;30.15;;
10082;SDS011;5080;48.528;8.078;2023-07-28T09:12:47;56.63;;;54.63;;
10082;SDS011;5080;48.528;8.078;2023-07-28T09:15:14;43.00;;;41.47;;
10082;SDS011;5080;48.528;8.078;2023-07-28T09:17:42;48.78;;;47.08;;
10082;SDS011;5080;48.528;8.078;2023-07-28T09:20:12;46.38;;;44.72;;
10082;SDS011;5080;48.528;8.078;2023-07-28T09:22:40;47.17;;;45.50;;
10082;SDS011;5080;48.528;8.078;2023-07-28T09:25:12;50.33;;;48.53;;
10082;SDS011;5080;48.528;8.078;2023-07-28T09:27:40;49.33;;;47.63;;
10082;SDS011;5080;48.528;8.078;2023-07-28T09:30:15;33.78;;;32.58;;
10082;SDS011;5080;48.528;8.078;2023-07-28T09:32:46;36.88;;;35.58;;
10082;SDS011;5080;48.528;8.078;2023-07-28T09:35:14;31.02;;;29.92;;
10082;SDS011;5080;48.528;8.078;2023-07-28T09:37:40;45.60;;;43.97;;
10082;SDS011;5080;48.528;8.078;2023-07-28T09:40:10;40.92;;;39.42;;
10082;SDS011;5080;48.528;8.078;2023-07-28T09:42:39;32.17;;;31.05;;
10082;SDS011;5080;48.528;8.078;2023-07-28T09:45:06;30.05;;;29.02;;
10082;SDS011;5080;48.528;8.078;2023-07-28T09:47:35;33.70;;;32.50;;
10082;SDS011;5080;48.528;8.078;2023-07-28T09:50:02;29.27;;;28.25;;
10082;SDS011;5080;48.528;8.078;2023-07-28T09:52:31;33.53;;;32.35;;
10082;SDS011;5080;48.528;8.078;2023-07-28T09:55:06;28.40;;;27.40;;
10082;SDS011;5080;48.528;8.078;2023-07-28T09:57:36;37.55;;;36.20;;
10082;SDS011;5080;48.528;8.078;2023-07-28T10:00:10;35.13;;;33.90;;
10082;SDS011;5080;48.528;8.078;2023-07-28T10:02:39;31.02;;;29.95;;
10082;SDS011;5080;48.528;8.078;2023-07-28T10:05:06;31.05;;;29.98;;
10082;SDS011;5080;48.528;8.078;2023-07-28T10:07:36;45.67;;;44.08;;
10082;SDS011;5080;48.528;8.078;2023-07-28T10:10:05;36.35;;;35.10;;
10082;SDS011;5080;48.528;8.078;2023-07-28T10:12:40;29.98;;;28.95;;
10082;SDS011;5080;48.528;8.078;2023-07-28T10:15:11;30.93;;;29.83;;
10082;SDS011;5080;48.528;8.078;2023-07-28T10:17:43;29.13;;;28.13;;
10082;SDS011;5080;48.528;8.078;2023-07-28T10:23:01;40.03;;;38.63;;
10082;SDS011;5080;48.528;8.078;2023-07-28T10:25:31;26.90;;;25.90;;
10082;SDS011;5080;48.528;8.078;2023-07-28T10:28:01;31.27;;;30.17;;
10082;SDS011;5080;48.528;8.078;2023-07-28T10:30:30;32.70;;;31.58;;
10082;SDS011;5080;48.528;8.078;2023-07-28T10:33:05;32.97;;;31.83;;
10082;SDS011;5080;48.528;8.078;2023-07-28T10:35:32;30.50;;;29.45;;
10082;SDS011;5080;48.528;8.078;2023-07-28T10:41:07;32.03;;;30.92;;
10082;SDS011;5080;48.528;8.078;2023-07-28T10:43:36;33.58;;;32.38;;
10082;SDS011;5080;48.528;8.078;2023-07-28T10:46:04;32.05;;;30.92;;
10082;SDS011;5080;48.528;8.078;2023-07-28T10:48:33;30.00;;;28.95;;
10082;SDS011;5080;48.528;8.078;2023-07-28T10:51:01;29.95;;;28.92;;
10082;SDS011;5080;48.528;8.078;2023-07-28T10:53:28;32.65;;;31.50;;
10082;SDS011;5080;48.528;8.078;2023-07-28T10:55:57;49.00;;;47.03;;
10082;SDS011;5080;48.528;8.078;2023-07-28T10:58:25;41.53;;;40.05;;
10082;SDS011;5080;48.528;8.078;2023-07-28T11:00:53;58.22;;;55.80;;
10082;SDS011;5080;48.528;8.078;2023-07-28T11:03:21;32.30;;;31.20;;
10082;SDS011;5080;48.528;8.078;2023-07-28T11:05:48;39.85;;;38.45;;
10082;SDS011;5080;48.528;8.078;2023-07-28T11:08:16;42.33;;;40.85;;
10082;SDS011;5080;48.528;8.078;2023-07-28T11:10:43;35.13;;;33.92;;
10082;SDS011;5080;48.528;8.078;2023-07-28T11:13:10;42.58;;;40.97;;
10082;SDS011;5080;48.528;8.078;2023-07-28T11:15:37;46.08;;;44.47;;
10082;SDS011;5080;48.528;8.078;2023-07-28T11:18:06;42.28;;;40.78;;
10082;SDS011;5080;48.528;8.078;2023-07-28T11:20:34;54.63;;;52.67;;
10082;SDS011;5080;48.528;8.078;2023-07-28T11:23:01;41.17;;;39.72;;
10082;SDS011;5080;48.528;8.078;2023-07-28T11:25:30;61.42;;;59.05;;
10082;SDS011;5080;48.528;8.078;2023-07-28T11:27:58;46.13;;;44.42;;
10082;SDS011;5080;48.528;8.078;2023-07-28T11:30:28;42.35;;;40.85;;
10082;SDS011;5080;48.528;8.078;2023-07-28T11:32:55;39.03;;;37.63;;
10082;SDS011;5080;48.528;8.078;2023-07-28T11:35:23;41.27;;;39.77;;
10082;SDS011;5080;48.528;8.078;2023-07-28T11:37:50;48.67;;;46.70;;
10082;SDS011;5080;48.528;8.078;2023-07-28T11:40:20;55.13;;;52.83;;
10082;SDS011;5080;48.528;8.078;2023-07-28T11:42:51;53.50;;;51.50;;
10082;SDS011;5080;48.528;8.078;2023-07-28T11:45:19;36.95;;;35.65;;
10082;SDS011;5080;48.528;8.078;2023-07-28T11:47:54;36.78;;;35.47;;
10082;SDS011;5080;48.528;8.078;2023-07-28T11:50:24;44.63;;;43.05;;
10082;SDS011;5080;48.528;8.078;2023-07-28T11:52:52;45.25;;;43.65;;
10082;SDS011;5080;48.528;8.078;2023-07-28T11:55:20;42.10;;;40.60;;
10082;SDS011;5080;48.528;8.078;2023-07-28T11:57:47;49.15;;;47.35;;
10082;SDS011;5080;48.528;8.078;2023-07-28T12:00:15;67.38;;;64.88;;
10082;SDS011;5080;48.528;8.078;2023-07-28T12:02:43;58.90;;;56.72;;
10082;SDS011;5080;48.528;8.078;2023-07-28T12:05:13;54.42;;;52.42;;
10082;SDS011;5080;48.528;8.078;2023-07-28T12:07:46;55.83;;;53.83;;
10082;SDS011;5080;48.528;8.078;2023-07-28T12:10:14;47.05;;;45.10;;
10082;SDS011;5080;48.528;8.078;2023-07-28T12:12:43;160.95;;;150.63;;
10082;SDS011;5080;48.528;8.078;2023-07-28T12:15:21;40.67;;;39.10;;
10082;SDS011;5080;48.528;8.078;2023-07-28T12:18:05;50.47;;;48.45;;
10082;SDS011;5080;48.528;8.078;2023-07-28T12:20:33;40.03;;;38.60;;
10082;SDS011;5080;48.528;8.078;2023-07-28T12:23:02;58.63;;;56.35;;
10082;SDS011;5080;48.528;8.078;2023-07-28T12:25:29;43.28;;;41.65;;
10082;SDS011;5080;48.528;8.078;2023-07-28T12:27:56;21.83;;;21.02;;
10082;SDS011;5080;48.528;8.078;2023-07-28T12:30:23;25.77;;;24.85;;
10082;SDS011;5080;48.528;8.078;2023-07-28T12:32:50;33.58;;;32.38;;
10082;SDS011;5080;48.528;8.078;2023-07-28T12:35:17;21.30;;;20.55;;
10082;SDS011;5080;48.528;8.078;2023-07-28T12:37:46;23.45;;;22.63;;
10082;SDS011;5080;48.528;8.078;2023-07-28T12:40:14;36.15;;;34.90;;
10082;SDS011;5080;48.528;8.078;2023-07-28T12:42:41;38.10;;;36.75;;
10082;SDS011;5080;48.528;8.078;2023-07-28T12:45:08;20.08;;;19.38;;
10082;SDS011;5080;48.528;8.078;2023-07-28T12:47:36;20.85;;;20.15;;
10082;SDS011;5080;48.528;8.078;2023-07-28T12:50:03;28.55;;;27.52;;
10082;SDS011;5080;48.528;8.078;2023-07-28T12:52:32;29.92;;;28.92;;
10082;SDS011;5080;48.528;8.078;2023-07-28T12:54:59;29.23;;;28.23;;
10082;SDS011;5080;48.528;8.078;2023-07-28T12:57:27;24.67;;;23.83;;
10082;SDS011;5080;48.528;8.078;2023-07-28T12:59:54;35.85;;;34.60;;
10082;SDS011;5080;48.528;8.078;2023-07-28T13:02:20;30.85;;;29.75;;
10082;SDS011;5080;48.528;8.078;2023-07-28T13:04:47;24.73;;;23.83;;
10082;SDS011;5080;48.528;8.078;2023-07-28T13:07:14;35.83;;;34.58;;
10082;SDS011;5080;48.528;8.078;2023-07-28T13:09:42;28.80;;;27.80;;
10082;SDS011;5080;48.528;8.078;2023-07-28T13:12:10;29.55;;;28.55;;
10082;SDS011;5080;48.528;8.078;2023-07-28T13:14:38;26.42;;;25.52;;
10082;SDS011;5080;48.528;8.078;2023-07-28T13:17:05;24.33;;;23.50;;
10082;SDS011;5080;48.528;8.078;2023-07-28T13:19:32;29.42;;;28.42;;
10082;SDS011;5080;48.528;8.078;2023-07-28T13:21:59;35.33;;;34.07;;
10082;SDS011;5080;48.528;8.078;2023-07-28T13:24:26;34.28;;;33.05;;
10082;SDS011;5080;48.528;8.078;2023-07-28T13:26:53;34.38;;;33.15;;
10082;SDS011;5080;48.528;8.078;2023-07-28T13:29:19;44.03;;;42.42;;
10082;SDS011;5080;48.528;8.078;2023-07-28T13:31:48;42.67;;;41.17;;
10082;SDS011;5080;48.528;8.078;2023-07-28T13:34:15;42.10;;;40.58;;
10082;SDS011;5080;48.528;8.078;2023-07-28T13:36:42;28.70;;;27.70;;
10082;SDS011;5080;48.528;8.078;2023-07-28T13:39:09;38.28;;;36.97;;
10082;SDS011;5080;48.528;8.078;2023-07-28T13:41:36;29.55;;;28.55;;
10082;SDS011;5080;48.528;8.078;2023-07-28T13:44:03;40.33;;;38.93;;
10082;SDS011;5080;48.528;8.078;2023-07-28T13:46:30;34.47;;;33.28;;
10082;SDS011;5080;48.528;8.078;2023-07-28T13:48:58;29.77;;;28.77;;
10082;SDS011;5080;48.528;8.078;2023-07-28T13:51:25;35.03;;;33.83;;
10082;SDS011;5080;48.528;8.078;2023-07-28T13:53:52;43.53;;;41.97;;
10082;SDS011;5080;48.528;8.078;2023-07-28T13:56:19;36.85;;;35.55;;
10082;SDS011;5080;48.528;8.078;2023-07-28T13:58:45;40.25;;;38.85;;
10082;SDS011;5080;48.528;8.078;2023-07-28T14:01:12;31.80;;;30.70;;
10082;SDS011;5080;48.528;8.078;2023-07-28T14:03:39;33.13;;;31.95;;
10082;SDS011;5080;48.528;8.078;2023-07-28T14:06:08;38.67;;;37.30;;
10082;SDS011;5080;48.528;8.078;2023-07-28T14:08:35;41.00;;;39.58;;
10082;SDS011;5080;48.528;8.078;2023-07-28T14:11:01;32.78;;;31.65;;
10082;SDS011;5080;48.528;8.078;2023-07-28T14:13:28;38.42;;;37.13;;
10082;SDS011;5080;48.528;8.078;2023-07-28T14:15:56;38.65;;;37.25;;
10082;SDS011;5080;48.528;8.078;2023-07-28T14:18:23;36.17;;;34.92;;
10082;SDS011;5080;48.528;8.078;2023-07-28T14:20:50;30.23;;;29.20;;
10082;SDS011;5080;48.528;8.078;2023-07-28T14:23:23;29.15;;;28.15;;
10082;SDS011;5080;48.528;8.078;2023-07-28T14:25:51;33.38;;;32.20;;
10082;SDS011;5080;48.528;8.078;2023-07-28T14:28:18;38.55;;;37.20;;
10082;SDS011;5080;48.528;8.078;2023-07-28T14:30:45;30.20;;;29.17;;
10082;SDS011;5080;48.528;8.078;2023-07-28T14:33:12;29.95;;;28.95;;
10082;SDS011;5080;48.528;8.078;2023-07-28T14:35:40;30.63;;;29.55;;
10082;SDS011;5080;48.528;8.078;2023-07-28T14:38:07;34.03;;;32.83;;
10082;SDS011;5080;48.528;8.078;2023-07-28T14:40:35;31.60;;;30.50;;
10082;SDS011;5080;48.528;8.078;2023-07-28T14:43:02;34.60;;;33.38;;
10082;SDS011;5080;48.528;8.078;2023-07-28T14:45:29;33.00;;;31.90;;